Time;durP1;ratioP1;P1;durP2;ratioP2;P2;SDS_P1;SDS_P2;PMS_P1;PMS_P2;Temp;Humidity;BMP_temperature;BMP_pressure;BME280_temperature;BME280_humidity;BME280_pressure;Samples;Min_cycle;Max_cycle;Signal;HPM_P1;HPM_P2
2022/08/16 00:00:56;;;;;;;20.35;18.20;;;22.30;99.90;;;;;;5053471;28;20128;-60
2022/08/16 00:03:22;;;;;;;21.13;17.80;;;22.40;99.90;;;;;;5035144;28;20041;-59
2022/08/16 00:05:48;;;;;;;19.63;17.77;;;22.40;99.90;;;;;;5043079;28;20485;-59
2022/08/16 00:08:13;;;;;;;20.08;18.08;;;22.30;99.90;;;;;;5047869;28;20060;-59
2022/08/16 00:10:39;;;;;;;21.63;18.63;;;22.30;99.90;;;;;;5039287;28;20478;-59
2022/08/16 00:13:08;;;;;;;20.10;18.20;;;22.30;99.90;;;;;;5025872;28;20033;-58
2022/08/16 00:15:43;;;;;;;21.52;18.63;;;22.30;99.90;;;;;;5031924;28;20108;-60
2022/08/16 00:18:09;;;;;;;20.45;18.50;;;22.30;99.90;;;;;;5045231;28;20124;-59
2022/08/16 00:20:37;;;;;;;21.25;18.13;;;22.30;99.90;;;;;;5038907;28;20119;-60
2022/08/16 00:23:03;;;;;;;20.55;18.55;;;22.30;99.90;;;;;;5052549;28;20452;-59
2022/08/16 00:25:29;;;;;;;20.45;18.17;;;22.20;99.90;;;;;;5046600;28;20127;-59
2022/08/16 00:27:55;;;;;;;19.90;17.98;;;22.20;99.90;;;;;;5046898;28;20034;-59
2022/08/16 00:30:22;;;;;;;20.50;18.38;;;22.20;99.90;;;;;;5044008;28;20423;-59
2022/08/16 00:32:51;;;;;;;19.83;17.35;;;22.20;99.90;;;;;;5052127;28;20345;-60
2022/08/16 00:35:23;;;;;;;19.50;17.60;;;22.20;99.90;;;;;;5047784;28;20468;-59
2022/08/16 00:37:49;;;;;;;19.98;17.90;;;22.20;99.90;;;;;;5049027;28;20036;-60
2022/08/16 00:40:19;;;;;;;19.00;17.00;;;22.20;99.90;;;;;;5034948;28;20493;-59
2022/08/16 00:42:45;;;;;;;19.95;18.02;;;22.10;99.90;;;;;;5037344;28;20040;-59
2022/08/16 00:45:23;;;;;;;19.90;17.90;;;22.10;99.90;;;;;;5036037;28;20767;-60
2022/08/16 00:47:49;;;;;;;19.48;17.58;;;22.00;99.90;;;;;;5046452;28;20116;-59
2022/08/16 00:50:15;;;;;;;20.55;17.63;;;22.00;99.90;;;;;;5039213;28;20099;-60
2022/08/16 00:52:41;;;;;;;20.15;18.13;;;22.00;99.90;;;;;;5051407;28;20454;-59
2022/08/16 00:55:07;;;;;;;19.58;17.42;;;22.00;99.90;;;;;;5049170;28;20102;-60
2022/08/16 00:57:34;;;;;;;19.80;17.80;;;22.00;99.90;;;;;;5043237;28;20037;-60
2022/08/16 01:00:01;;;;;;;22.02;17.48;;;22.00;99.90;;;;;;5034869;28;20112;-60
2022/08/16 01:02:27;;;;;;;20.15;18.13;;;22.00;99.90;;;;;;5051896;28;20033;-60
2022/08/16 01:04:52;;;;;;;20.30;18.10;;;22.00;99.90;;;;;;5050802;28;20040;-60
2022/08/16 01:07:18;;;;;;;19.08;17.25;;;22.00;99.90;;;;;;5027242;28;20102;-59
2022/08/16 01:09:45;;;;;;;19.52;16.95;;;21.90;99.90;;;;;;5052028;28;20037;-59
2022/08/16 01:12:11;;;;;;;19.50;17.50;;;21.90;99.90;;;;;;5051296;28;20489;-59
2022/08/16 01:14:44;;;;;;;18.08;16.27;;;22.00;99.90;;;;;;5051808;28;20123;-61
2022/08/16 01:17:12;;;;;;;17.00;15.10;;;22.00;99.90;;;;;;5037105;28;20135;-59
2022/08/16 01:19:42;;;;;;;17.55;15.85;;;22.00;99.90;;;;;;5051936;28;20099;-60
2022/08/16 01:22:36;;;;;;;16.85;15.25;;;21.90;99.90;;;;;;5050951;28;20047;-60
2022/08/16 01:25:06;;;;;;;15.67;14.10;;;21.90;99.90;;;;;;5032012;28;20033;-59
2022/08/16 01:27:35;;;;;;;16.55;14.82;;;21.90;99.90;;;;;;5033599;28;20091;-59
2022/08/16 01:30:03;;;;;;;18.77;15.23;;;21.90;99.90;;;;;;5035725;28;20037;-59
2022/08/16 01:32:34;;;;;;;15.55;13.95;;;21.90;99.90;;;;;;5040239;28;20505;-60
2022/08/16 01:35:03;;;;;;;14.45;12.93;;;21.90;99.90;;;;;;5044029;28;20044;-60
2022/08/16 01:37:36;;;;;;;17.80;14.68;;;21.80;99.90;;;;;;5045015;28;20112;-60
2022/08/16 01:40:05;;;;;;;15.75;14.20;;;21.80;99.90;;;;;;5051547;28;20029;-59
2022/08/16 01:42:30;;;;;;;17.33;14.98;;;21.80;99.90;;;;;;5051089;28;20497;-60
2022/08/16 01:44:56;;;;;;;15.88;14.27;;;21.80;99.90;;;;;;5032170;28;20029;-60
2022/08/16 01:47:21;;;;;;;16.35;14.52;;;21.80;99.90;;;;;;5042164;28;20041;-59
2022/08/16 01:49:47;;;;;;;17.00;14.50;;;21.80;99.90;;;;;;5034411;28;20073;-59
2022/08/16 01:52:17;;;;;;;18.45;15.73;;;21.70;99.90;;;;;;5039923;28;20036;-60
2022/08/16 01:54:42;;;;;;;16.40;14.70;;;21.70;99.90;;;;;;5051306;28;20048;-60
2022/08/16 01:57:09;;;;;;;19.23;15.30;;;21.70;99.90;;;;;;5032140;28;20038;-61
2022/08/16 01:59:36;;;;;;;16.38;14.77;;;21.60;99.90;;;;;;5045021;28;20055;-59
2022/08/16 02:02:03;;;;;;;17.42;14.82;;;21.60;99.90;;;;;;5045226;28;20037;-60
2022/08/16 02:04:31;;;;;;;16.85;14.95;;;21.50;99.90;;;;;;5031376;28;20108;-60
2022/08/16 02:06:58;;;;;;;18.50;15.25;;;21.50;99.90;;;;;;5029976;28;20522;-61
2022/08/16 02:09:25;;;;;;;17.30;15.68;;;21.40;99.90;;;;;;5031014;28;20491;-59
2022/08/16 02:11:56;;;;;;;18.08;16.27;;;21.40;99.90;;;;;;5033768;28;20029;-59
2022/08/16 02:14:26;;;;;;;17.98;16.15;;;21.40;99.90;;;;;;5051349;28;20154;-59
2022/08/16 02:16:52;;;;;;;18.02;16.20;;;21.30;99.90;;;;;;5023039;28;20053;-59
2022/08/16 02:19:19;;;;;;;17.23;15.63;;;21.30;99.90;;;;;;5043218;28;20140;-59
2022/08/16 02:21:55;;;;;;;17.35;15.57;;;21.30;99.90;;;;;;5031066;28;20053;-59
2022/08/16 02:24:21;;;;;;;18.92;16.83;;;21.20;99.90;;;;;;5051076;28;20280;-60
2022/08/16 02:26:48;;;;;;;15.75;14.25;;;21.10;99.90;;;;;;5044240;28;20445;-59
2022/08/16 02:29:17;;;;;;;16.52;14.82;;;21.20;99.90;;;;;;5049325;28;20045;-59
2022/08/16 02:31:43;;;;;;;17.98;16.08;;;21.10;99.90;;;;;;5039215;28;20080;-59
2022/08/16 02:34:09;;;;;;;21.98;16.75;;;21.10;99.90;;;;;;5050303;28;20111;-59
2022/08/16 02:36:34;;;;;;;17.63;15.35;;;21.10;99.90;;;;;;5030152;28;20430;-59
2022/08/16 02:39:01;;;;;;;19.30;16.50;;;21.00;99.90;;;;;;5031118;28;20095;-60
2022/08/16 02:41:26;;;;;;;17.13;15.30;;;21.00;99.90;;;;;;5044433;28;20466;-59
2022/08/16 02:43:52;;;;;;;17.77;15.98;;;21.00;99.90;;;;;;5023146;28;20084;-60
2022/08/16 02:46:18;;;;;;;17.52;15.63;;;21.00;99.90;;;;;;5038606;28;20044;-59
2022/08/16 02:48:43;;;;;;;20.63;15.73;;;20.90;99.90;;;;;;5030827;28;20046;-59
2022/08/16 02:51:09;;;;;;;17.33;15.57;;;20.90;99.90;;;;;;5044769;28;20045;-59
2022/08/16 02:53:37;;;;;;;18.35;15.57;;;20.90;99.90;;;;;;5044061;28;20037;-59
2022/08/16 02:56:04;;;;;;;16.98;15.30;;;20.90;99.90;;;;;;5033738;28;20065;-59
2022/08/16 02:58:32;;;;;;;18.65;15.80;;;20.80;99.90;;;;;;5030891;28;20392;-60
2022/08/16 03:00:58;;;;;;;16.10;14.40;;;20.80;99.90;;;;;;5030975;28;20060;-59
2022/08/16 03:03:25;;;;;;;16.75;15.15;;;20.70;99.90;;;;;;5044345;28;20052;-59
2022/08/16 03:05:52;;;;;;;17.42;15.55;;;20.70;99.90;;;;;;5032061;28;20033;-59
2022/08/16 03:08:18;;;;;;;17.25;15.35;;;20.70;99.90;;;;;;5031798;28;20053;-59
2022/08/16 03:10:44;;;;;;;17.77;15.90;;;20.70;99.90;;;;;;5050653;28;20041;-59
2022/08/16 03:13:09;;;;;;;18.27;16.25;;;20.60;99.90;;;;;;5050269;28;20033;-59
2022/08/16 03:15:35;;;;;;;18.08;15.02;;;20.60;99.90;;;;;;5046796;28;20498;-59
2022/08/16 03:18:01;;;;;;;16.40;14.85;;;20.50;99.90;;;;;;5045391;28;20053;-59
2022/08/16 03:20:27;;;;;;;16.88;15.18;;;20.60;99.90;;;;;;5039934;28;20048;-59
2022/08/16 03:22:53;;;;;;;16.90;15.20;;;20.50;99.90;;;;;;5044312;28;20037;-59
2022/08/16 03:25:19;;;;;;;17.08;15.27;;;20.50;99.90;;;;;;5042011;28;20049;-59
2022/08/16 03:27:44;;;;;;;17.10;15.30;;;20.40;99.90;;;;;;5019890;28;20109;-59
2022/08/16 03:30:15;;;;;;;16.67;14.95;;;20.30;99.90;;;;;;5033958;28;20123;-59
2022/08/16 03:32:40;;;;;;;16.70;15.00;;;20.40;99.90;;;;;;5047641;28;20167;-59
2022/08/16 03:35:07;;;;;;;17.83;15.90;;;20.40;99.90;;;;;;5040731;28;20120;-59
2022/08/16 03:37:34;;;;;;;17.50;15.43;;;20.40;99.90;;;;;;5047446;28;20144;-59
2022/08/16 03:40:00;;;;;;;17.63;15.73;;;20.40;99.90;;;;;;5047794;28;20111;-59
2022/08/16 03:42:26;;;;;;;17.80;15.98;;;20.40;99.90;;;;;;5045763;28;20087;-59
2022/08/16 03:44:51;;;;;;;17.00;15.20;;;20.40;99.90;;;;;;5039758;28;20420;-59
2022/08/16 03:47:17;;;;;;;18.33;16.35;;;20.30;99.90;;;;;;5044580;28;20461;-59
2022/08/16 03:49:43;;;;;;;17.80;15.90;;;20.30;99.90;;;;;;5039481;28;20045;-59
2022/08/16 03:52:09;;;;;;;18.13;16.23;;;20.30;99.90;;;;;;5052937;28;20434;-59
2022/08/16 03:54:35;;;;;;;18.95;15.73;;;20.30;99.90;;;;;;5039454;28;20073;-59
2022/08/16 03:57:02;;;;;;;19.52;15.77;;;20.20;99.90;;;;;;5042820;28;20056;-60
2022/08/16 03:59:28;;;;;;;17.73;15.82;;;20.20;99.90;;;;;;5053547;28;20045;-59
2022/08/16 04:01:54;;;;;;;17.90;15.60;;;20.20;99.90;;;;;;5052752;28;20481;-59
2022/08/16 04:04:20;;;;;;;17.73;16.02;;;20.20;99.90;;;;;;5042839;28;20041;-58
2022/08/16 04:06:45;;;;;;;18.83;16.90;;;20.20;99.90;;;;;;5037456;28;20100;-60
2022/08/16 04:09:11;;;;;;;17.23;15.32;;;20.10;99.90;;;;;;5053314;28;20045;-59
2022/08/16 04:11:37;;;;;;;18.40;15.25;;;20.20;99.90;;;;;;5021367;28;20057;-59
2022/08/16 04:14:03;;;;;;;17.65;15.85;;;20.10;99.90;;;;;;5052857;28;20032;-59
2022/08/16 04:16:31;;;;;;;16.83;15.18;;;20.10;99.90;;;;;;5021158;28;20077;-59
2022/08/16 04:18:57;;;;;;;17.33;15.60;;;20.00;99.90;;;;;;5047169;28;20037;-59
2022/08/16 04:21:22;;;;;;;17.85;15.93;;;20.00;99.90;;;;;;5043853;28;20045;-59
2022/08/16 04:23:48;;;;;;;20.42;16.23;;;19.90;99.90;;;;;;5052392;28;20057;-59
2022/08/16 04:26:13;;;;;;;18.35;15.82;;;19.90;99.90;;;;;;5023855;28;20405;-59
2022/08/16 04:28:39;;;;;;;17.65;15.85;;;19.90;99.90;;;;;;5026320;28;20045;-59
2022/08/16 04:31:05;;;;;;;18.67;16.77;;;19.90;99.90;;;;;;5052733;28;20033;-59
2022/08/16 04:33:31;;;;;;;16.75;14.93;;;19.90;99.90;;;;;;5043523;28;20117;-59
2022/08/16 04:35:57;;;;;;;17.55;15.75;;;19.80;99.90;;;;;;5039537;28;20338;-59
2022/08/16 04:38:24;;;;;;;17.05;14.40;;;19.80;99.90;;;;;;5032435;28;20151;-60
2022/08/16 04:40:50;;;;;;;18.10;16.20;;;19.80;99.90;;;;;;5045942;28;20114;-59
2022/08/16 04:43:17;;;;;;;19.77;15.73;;;19.80;99.90;;;;;;5032929;28;20041;-59
2022/08/16 04:45:43;;;;;;;17.50;15.25;;;19.80;99.90;;;;;;5031861;28;20046;-59
2022/08/16 04:48:09;;;;;;;15.52;13.93;;;19.80;99.90;;;;;;5046206;28;20049;-59
2022/08/16 04:50:35;;;;;;;20.83;15.65;;;19.80;99.90;;;;;;5014908;28;20033;-59
2022/08/16 04:53:01;;;;;;;16.73;14.95;;;19.90;99.90;;;;;;5033525;28;20034;-61
2022/08/16 04:55:28;;;;;;;18.50;15.70;;;19.90;99.90;;;;;;5026638;28;20053;-59
2022/08/16 04:57:55;;;;;;;16.80;15.10;;;19.90;99.90;;;;;;5032069;28;20052;-59
2022/08/16 05:00:24;;;;;;;17.35;15.52;;;20.00;99.90;;;;;;5032029;28;20482;-59
2022/08/16 05:02:52;;;;;;;17.00;15.02;;;20.20;99.90;;;;;;5032081;28;20121;-59
2022/08/16 05:05:18;;;;;;;16.75;15.10;;;20.30;99.90;;;;;;5013769;28;20049;-59
2022/08/16 05:07:45;;;;;;;16.75;15.05;;;20.40;99.90;;;;;;5042523;28;20045;-59
2022/08/16 05:10:10;;;;;;;17.88;14.20;;;20.40;99.90;;;;;;5052084;28;20075;-59
2022/08/16 05:12:36;;;;;;;17.50;14.60;;;20.40;99.90;;;;;;5051745;28;20041;-59
2022/08/16 05:15:04;;;;;;;16.42;14.63;;;20.50;99.90;;;;;;5052104;28;20369;-59
2022/08/16 05:17:32;;;;;;;16.75;14.68;;;20.40;99.90;;;;;;5038006;28;20549;-59
2022/08/16 05:19:58;;;;;;;16.58;13.65;;;20.40;99.90;;;;;;5051686;28;20045;-59
2022/08/16 05:22:24;;;;;;;17.55;14.43;;;20.50;99.90;;;;;;5050963;28;20058;-59
2022/08/16 05:24:50;;;;;;;15.70;13.95;;;20.50;99.90;;;;;;5051806;28;20068;-60
2022/08/16 05:27:16;;;;;;;15.05;13.60;;;20.60;99.90;;;;;;5046798;28;20037;-59
2022/08/16 05:29:42;;;;;;;15.25;13.63;;;20.70;99.90;;;;;;5037513;28;20037;-59
2022/08/16 05:32:08;;;;;;;14.98;13.18;;;20.90;99.90;;;;;;5051244;28;20395;-59
2022/08/16 05:34:33;;;;;;;16.85;13.55;;;21.30;99.90;;;;;;5051445;28;20064;-58
2022/08/16 05:36:59;;;;;;;17.80;14.13;;;21.60;99.90;;;;;;5044726;28;20378;-58
2022/08/16 05:39:26;;;;;;;15.13;13.65;;;21.80;99.90;;;;;;5051269;28;20480;-59
2022/08/16 05:41:53;;;;;;;15.43;13.90;;;22.10;99.90;;;;;;5025784;28;20627;-59
2022/08/16 05:44:22;;;;;;;15.13;13.13;;;22.40;99.90;;;;;;5045115;28;20100;-59
2022/08/16 05:46:53;;;;;;;15.45;13.63;;;22.90;99.90;;;;;;5043465;28;20033;-59
2022/08/16 05:49:18;;;;;;;21.00;13.88;;;23.30;99.90;;;;;;5025618;28;20034;-59
2022/08/16 05:51:45;;;;;;;14.70;13.30;;;23.70;99.90;;;;;;5029890;28;20033;-59
2022/08/16 05:54:16;;;;;;;15.52;13.93;;;24.00;99.90;;;;;;5042792;28;20040;-60
2022/08/16 05:56:42;;;;;;;16.40;14.43;;;24.00;99.90;;;;;;5041188;28;20347;-60
2022/08/16 05:59:08;;;;;;;15.27;13.52;;;24.20;99.90;;;;;;5041361;28;20127;-59
2022/08/16 06:01:34;;;;;;;17.08;14.73;;;24.40;99.90;;;;;;5028880;28;20470;-59
2022/08/16 06:04:00;;;;;;;15.27;13.65;;;24.40;99.90;;;;;;5051854;28;20047;-59
2022/08/16 06:06:25;;;;;;;14.70;13.20;;;24.10;99.90;;;;;;5036628;28;20046;-59
2022/08/16 06:08:51;;;;;;;14.77;13.27;;;24.10;99.90;;;;;;5031331;28;20034;-59
2022/08/16 06:11:17;;;;;;;15.70;14.00;;;24.40;99.90;;;;;;5031250;28;20033;-59
2022/08/16 06:13:44;;;;;;;16.13;14.52;;;24.80;99.90;;;;;;5026904;28;20127;-59
2022/08/16 06:16:10;;;;;;;16.23;13.60;;;25.10;99.90;;;;;;5023359;28;20530;-59
2022/08/16 06:18:35;;;;;;;17.40;14.80;;;25.40;99.90;;;;;;5026756;28;20088;-59
2022/08/16 06:21:01;;;;;;;14.55;13.10;;;25.60;99.90;;;;;;5031334;28;20108;-59
2022/08/16 06:23:27;;;;;;;15.85;14.35;;;25.90;99.90;;;;;;5030645;28;20046;-59
2022/08/16 06:25:53;;;;;;;15.65;13.90;;;26.20;99.90;;;;;;5022652;28;20045;-59
2022/08/16 06:28:19;;;;;;;17.35;14.15;;;26.60;99.90;;;;;;5031020;28;20038;-60
2022/08/16 06:30:45;;;;;;;15.38;13.75;;;26.70;99.90;;;;;;5013721;28;20108;-59
2022/08/16 06:33:17;;;;;;;17.20;15.50;;;26.90;99.90;;;;;;5050609;28;20029;-59
2022/08/16 06:35:42;;;;;;;17.70;15.25;;;27.00;99.90;;;;;;5034214;28;20121;-59
2022/08/16 06:38:08;;;;;;;17.15;15.45;;;27.30;99.90;;;;;;5034687;28;20123;-59
2022/08/16 06:40:34;;;;;;;17.75;15.77;;;27.20;99.90;;;;;;5039648;28;20426;-59
2022/08/16 06:43:00;;;;;;;18.13;16.27;;;26.80;99.90;;;;;;5030349;28;20037;-60
2022/08/16 06:45:26;;;;;;;17.95;16.05;;;26.50;99.90;;;;;;5029808;28;20033;-60
2022/08/16 06:47:51;;;;;;;19.23;16.80;;;26.60;99.90;;;;;;5044901;28;20045;-59
2022/08/16 06:50:18;;;;;;;21.60;15.98;;;26.70;99.90;;;;;;5040386;28;20036;-59
2022/08/16 06:52:44;;;;;;;24.73;16.92;;;26.40;99.90;;;;;;5054256;28;20033;-59
2022/08/16 06:55:12;;;;;;;20.95;18.45;;;26.10;99.90;;;;;;5054954;28;20068;-59
2022/08/16 06:57:38;;;;;;;19.83;17.38;;;25.90;99.90;;;;;;5033887;28;20033;-59
2022/08/16 07:00:13;;;;;;;21.55;19.38;;;25.70;99.90;;;;;;5037956;28;20114;-59
2022/08/16 07:02:43;;;;;;;22.13;19.83;;;25.80;99.90;;;;;;5043251;28;20455;-60
2022/08/16 07:05:10;;;;;;;22.67;20.27;;;26.30;99.90;;;;;;5017205;28;20104;-60
2022/08/16 07:07:36;;;;;;;25.98;21.15;;;26.60;99.90;;;;;;5042904;28;20033;-59
2022/08/16 07:10:05;;;;;;;24.67;21.80;;;26.70;99.90;;;;;;5038672;28;20056;-59
2022/08/16 07:12:31;;;;;;;25.05;22.10;;;26.80;99.90;;;;;;5041925;28;20049;-60
2022/08/16 07:14:56;;;;;;;24.17;21.88;;;26.90;99.90;;;;;;5054311;28;20040;-60
2022/08/16 07:17:23;;;;;;;22.23;20.02;;;27.00;99.90;;;;;;5038990;28;20132;-59
2022/08/16 07:19:49;;;;;;;24.50;21.55;;;27.20;99.90;;;;;;5054214;28;20041;-60
2022/08/16 07:22:16;;;;;;;23.15;20.75;;;27.10;99.90;;;;;;5039239;28;20182;-60
2022/08/16 07:24:43;;;;;;;24.10;20.65;;;27.10;99.90;;;;;;5054028;28;20040;-61
2022/08/16 07:27:09;;;;;;;22.88;20.58;;;27.00;99.90;;;;;;5050040;28;20128;-59
2022/08/16 07:29:34;;;;;;;22.58;19.88;;;27.10;99.90;;;;;;5053778;28;20140;-60
2022/08/16 07:32:00;;;;;;;22.92;20.63;;;27.10;99.90;;;;;;5043537;28;20471;-59
2022/08/16 07:34:26;;;;;;;22.83;20.50;;;27.10;99.90;;;;;;5047942;28;20059;-59
2022/08/16 07:36:52;;;;;;;23.00;20.35;;;27.00;99.90;;;;;;5015455;28;20030;-59
2022/08/16 07:39:18;;;;;;;22.85;20.55;;;26.90;99.90;;;;;;5048315;28;20524;-59
2022/08/16 07:41:44;;;;;;;23.38;20.65;;;26.80;99.90;;;;;;5047005;28;20056;-59
2022/08/16 07:44:10;;;;;;;21.60;19.33;;;26.70;99.90;;;;;;5033935;28;20037;-59
2022/08/16 07:46:35;;;;;;;23.48;20.38;;;26.50;99.90;;;;;;5044497;28;20037;-60
2022/08/16 07:49:03;;;;;;;22.95;20.52;;;26.40;99.90;;;;;;5053789;28;20049;-59
2022/08/16 07:51:35;;;;;;;23.10;20.67;;;26.30;99.90;;;;;;5054278;28;20037;-58
2022/08/16 07:54:05;;;;;;;22.30;19.98;;;26.20;99.90;;;;;;5026762;28;20045;-59
2022/08/16 07:56:31;;;;;;;24.23;21.73;;;26.00;99.90;;;;;;5042037;28;20459;-59
2022/08/16 07:58:57;;;;;;;23.85;21.25;;;25.80;99.90;;;;;;5046003;28;20033;-58
2022/08/16 08:01:23;;;;;;;23.88;20.05;;;25.70;99.90;;;;;;5046832;28;20044;-60
2022/08/16 08:03:51;;;;;;;22.63;20.33;;;25.60;99.90;;;;;;5039854;28;20029;-59
2022/08/16 08:06:19;;;;;;;23.52;21.08;;;25.60;99.90;;;;;;5039965;28;20059;-59
2022/08/16 08:08:45;;;;;;;22.67;20.27;;;25.70;99.90;;;;;;5046818;28;20382;-59
2022/08/16 08:11:12;;;;;;;24.42;21.42;;;25.80;99.90;;;;;;5033448;28;20052;-58
2022/08/16 08:13:37;;;;;;;24.60;22.20;;;25.90;99.90;;;;;;5046862;28;20034;-59
2022/08/16 08:16:03;;;;;;;23.67;21.17;;;25.90;99.90;;;;;;5017734;28;20103;-59
2022/08/16 08:18:29;;;;;;;22.60;20.02;;;26.00;99.90;;;;;;5016396;28;20049;-59
2022/08/16 08:20:56;;;;;;;21.08;18.92;;;26.00;99.90;;;;;;5046362;28;20041;-59
2022/08/16 08:23:22;;;;;;;22.05;19.75;;;26.00;99.90;;;;;;5032498;28;20041;-59
2022/08/16 08:25:48;;;;;;;20.80;18.60;;;26.20;99.90;;;;;;5043014;28;20466;-59
2022/08/16 08:28:15;;;;;;;21.50;19.40;;;26.40;99.90;;;;;;5025463;28;20061;-59
2022/08/16 08:30:41;;;;;;;20.95;18.92;;;26.40;99.90;;;;;;5039704;28;20443;-59
2022/08/16 08:33:07;;;;;;;20.65;18.58;;;26.50;99.90;;;;;;5040889;28;20122;-59
2022/08/16 08:35:34;;;;;;;21.98;19.83;;;26.60;99.90;;;;;;5033077;28;20114;-58
2022/08/16 08:38:00;;;;;;;22.13;19.88;;;26.70;99.90;;;;;;5032755;28;20033;-58
2022/08/16 08:40:27;;;;;;;22.17;19.98;;;26.50;99.90;;;;;;5042653;28;20132;-60
2022/08/16 08:42:58;;;;;;;21.23;19.02;;;26.50;99.90;;;;;;5052093;28;20049;-59
2022/08/16 08:45:24;;;;;;;21.98;19.67;;;26.50;99.90;;;;;;5043592;28;20045;-59
2022/08/16 08:47:49;;;;;;;20.83;18.67;;;26.60;99.90;;;;;;5042273;28;20029;-59
2022/08/16 08:50:16;;;;;;;21.95;19.38;;;26.70;99.90;;;;;;5052638;28;20561;-59
2022/08/16 08:52:44;;;;;;;19.63;17.52;;;26.60;99.90;;;;;;5034140;28;20112;-59
2022/08/16 08:55:12;;;;;;;18.48;16.58;;;26.60;99.90;;;;;;5038159;28;20095;-59
2022/08/16 08:57:44;;;;;;;19.40;17.50;;;26.60;99.90;;;;;;5032218;28;20037;-60
2022/08/16 09:00:11;;;;;;;19.98;17.15;;;26.50;99.90;;;;;;5036605;28;20044;-59
2022/08/16 09:02:37;;;;;;;22.90;17.85;;;26.40;99.90;;;;;;5052044;28;20041;-58
2022/08/16 09:05:03;;;;;;;18.63;16.70;;;26.30;99.90;;;;;;5038181;28;20048;-59
2022/08/16 09:07:29;;;;;;;17.52;15.15;;;26.30;99.90;;;;;;5042277;28;20041;-59
2022/08/16 09:09:54;;;;;;;17.10;15.27;;;26.30;99.90;;;;;;5034274;28;20167;-59
2022/08/16 09:12:21;;;;;;;18.42;15.15;;;26.40;99.90;;;;;;5051465;28;20028;-60
2022/08/16 09:14:47;;;;;;;15.75;13.73;;;26.70;99.90;;;;;;5052411;28;20039;-59
2022/08/16 09:17:12;;;;;;;14.65;13.05;;;26.80;99.90;;;;;;5035454;28;20405;-59
2022/08/16 09:19:39;;;;;;;15.65;13.85;;;26.90;99.60;;;;;;5042704;28;20038;-59
2022/08/16 09:22:05;;;;;;;18.27;16.58;;;26.90;99.30;;;;;;5051105;28;20087;-59
2022/08/16 09:24:32;;;;;;;19.27;17.23;;;26.80;99.70;;;;;;5047806;28;20075;-60
2022/08/16 09:26:58;;;;;;;18.27;16.38;;;26.80;99.90;;;;;;5037824;28;20423;-59
2022/08/16 09:29:24;;;;;;;18.45;16.58;;;26.90;99.90;;;;;;5034457;28;20488;-59
2022/08/16 09:31:50;;;;;;;20.40;18.05;;;27.00;99.90;;;;;;5051101;28;20033;-59
2022/08/16 09:34:15;;;;;;;18.70;16.17;;;26.90;99.90;;;;;;5033093;28;20056;-59
2022/08/16 09:36:42;;;;;;;16.50;14.85;;;26.80;99.90;;;;;;5037732;28;20029;-58
2022/08/16 09:39:08;;;;;;;15.43;13.52;;;26.90;99.90;;;;;;5038685;28;20049;-59
2022/08/16 09:41:34;;;;;;;15.52;13.13;;;27.00;99.70;;;;;;5040181;28;20036;-59
2022/08/16 09:44:02;;;;;;;15.93;11.15;;;27.20;99.20;;;;;;5034462;28;20350;-59
2022/08/16 09:46:29;;;;;;;13.93;11.25;;;27.30;98.50;;;;;;5045212;28;20048;-59
2022/08/16 09:48:57;;;;;;;9.80;8.25;;;27.30;98.40;;;;;;5051527;28;20349;-59
2022/08/16 09:51:25;;;;;;;11.38;9.23;;;27.30;97.80;;;;;;5050843;28;20056;-59
2022/08/16 09:53:54;;;;;;;11.90;8.95;;;27.40;97.30;;;;;;5051382;28;20448;-59
2022/08/16 09:56:30;;;;;;;11.85;8.55;;;27.40;97.00;;;;;;5043173;28;20515;-59
2022/08/16 09:58:57;;;;;;;10.05;9.05;;;27.40;97.10;;;;;;5051372;28;20104;-60
2022/08/16 10:01:23;;;;;;;11.60;8.25;;;27.40;96.90;;;;;;5050845;28;20041;-59
2022/08/16 10:03:50;;;;;;;10.45;8.95;;;27.40;97.00;;;;;;5051592;28;20029;-58
2022/08/16 10:06:17;;;;;;;10.68;9.35;;;27.50;96.80;;;;;;5043418;28;20058;-59
2022/08/16 10:08:44;;;;;;;12.85;9.88;;;27.50;96.70;;;;;;5031062;28;20336;-59
2022/08/16 10:13:54;;;;;;;8.55;6.70;;;27.50;96.20;;;;;;5026569;28;20046;-59
2022/08/16 10:16:20;;;;;;;6.93;6.20;;;27.40;95.80;;;;;;5025628;28;20029;-59
2022/08/16 10:18:46;;;;;;;9.88;6.13;;;27.50;96.00;;;;;;5045133;28;20046;-59
2022/08/16 10:21:14;;;;;;;7.60;5.72;;;27.50;95.20;;;;;;5040046;28;20551;-59
2022/08/16 10:23:41;;;;;;;8.40;4.88;;;27.60;94.90;;;;;;5049159;28;20053;-60
2022/08/16 10:26:06;;;;;;;7.55;5.47;;;27.70;94.20;;;;;;5050265;28;20370;-58
2022/08/16 10:28:33;;;;;;;8.57;5.38;;;27.70;93.90;;;;;;5055224;28;20458;-59
2022/08/16 10:31:00;;;;;;;9.35;4.85;;;27.70;94.20;;;;;;5037418;28;20059;-59
2022/08/16 10:33:27;;;;;;;6.68;4.20;;;27.80;94.10;;;;;;5054883;28;20128;-59
2022/08/16 10:35:54;;;;;;;8.00;3.95;;;27.90;93.70;;;;;;5032790;28;20048;-59
2022/08/16 10:38:20;;;;;;;8.15;6.22;;;28.00;93.50;;;;;;5054799;28;20444;-60
2022/08/16 10:40:46;;;;;;;8.55;5.70;;;28.00;94.10;;;;;;5042554;28;20128;-59
2022/08/16 10:43:12;;;;;;;5.93;4.10;;;28.10;93.90;;;;;;5053008;28;20139;-59
2022/08/16 10:45:39;;;;;;;4.75;3.83;;;28.20;93.40;;;;;;5052769;28;20053;-59
2022/08/16 10:48:08;;;;;;;5.45;3.70;;;28.40;93.10;;;;;;5037487;28;20041;-59
2022/08/16 10:50:35;;;;;;;8.18;5.60;;;28.60;92.60;;;;;;5037642;28;20059;-59
2022/08/16 10:53:05;;;;;;;8.18;5.22;;;28.60;93.50;;;;;;5040301;28;20099;-59
2022/08/16 10:55:35;;;;;;;8.32;5.32;;;28.50;93.80;;;;;;5054443;28;20425;-59
2022/08/16 10:58:05;;;;;;;7.07;4.80;;;28.60;93.70;;;;;;5029932;28;20099;-59
2022/08/16 11:00:32;;;;;;;9.50;5.40;;;28.60;93.30;;;;;;5047530;28;20360;-59
2022/08/16 11:03:01;;;;;;;10.00;5.93;;;28.50;93.00;;;;;;5047465;28;20044;-60
2022/08/16 11:05:27;;;;;;;8.75;6.90;;;28.60;93.60;;;;;;5054495;28;20082;-59
2022/08/16 11:07:53;;;;;;;11.10;8.82;;;28.40;94.40;;;;;;5038410;28;20468;-61
2022/08/16 11:10:25;;;;;;;12.20;8.10;;;28.50;95.50;;;;;;5036600;28;20065;-59
2022/08/16 11:12:51;;;;;;;9.60;7.47;;;28.60;95.40;;;;;;5044929;28;20041;-59
2022/08/16 11:15:17;;;;;;;13.60;10.00;;;28.70;94.90;;;;;;5054198;28;20143;-60
2022/08/16 11:17:43;;;;;;;12.57;10.93;;;28.80;95.70;;;;;;5034569;28;20052;-60
2022/08/16 11:20:09;;;;;;;11.35;10.00;;;28.70;95.60;;;;;;5031424;28;20086;-59
2022/08/16 11:22:36;;;;;;;13.35;10.20;;;28.60;95.90;;;;;;5053401;28;20474;-59
2022/08/16 11:25:02;;;;;;;11.00;9.52;;;28.60;95.80;;;;;;5050219;28;20081;-59
2022/08/16 11:27:28;;;;;;;12.02;10.52;;;28.50;95.80;;;;;;5037821;28;20127;-59
2022/08/16 11:29:55;;;;;;;10.93;6.63;;;28.70;95.90;;;;;;5054135;28;20074;-59
2022/08/16 11:32:23;;;;;;;10.75;9.38;;;28.70;94.90;;;;;;5022977;28;20514;-60
2022/08/16 11:34:49;;;;;;;11.48;9.18;;;28.80;94.90;;;;;;5047432;28;20037;-59
2022/08/16 11:37:14;;;;;;;11.48;8.32;;;28.80;95.20;;;;;;5044241;28;20044;-60
2022/08/16 11:39:40;;;;;;;10.48;7.20;;;28.90;95.30;;;;;;5032586;28;20037;-59
2022/08/16 11:42:06;;;;;;;10.60;6.10;;;29.00;95.00;;;;;;5042677;28;20037;-60
2022/08/16 11:44:31;;;;;;;14.40;8.10;;;29.10;94.30;;;;;;5038638;28;20076;-59
2022/08/16 11:46:58;;;;;;;13.00;8.57;;;29.20;94.30;;;;;;5033414;28;20455;-60
2022/08/16 11:49:23;;;;;;;10.10;6.80;;;29.20;94.30;;;;;;5029903;28;20064;-59
2022/08/16 11:51:49;;;;;;;9.55;6.43;;;29.10;94.20;;;;;;5030094;28;20637;-59
2022/08/16 11:54:15;;;;;;;9.57;5.80;;;29.10;94.30;;;;;;5045001;28;20557;-59
2022/08/16 11:56:41;;;;;;;12.40;6.80;;;29.20;94.20;;;;;;5046113;28;20116;-59
2022/08/16 11:59:07;;;;;;;9.10;7.13;;;29.20;94.10;;;;;;5053303;28;20098;-59
2022/08/16 12:01:32;;;;;;;7.45;5.82;;;29.20;93.50;;;;;;5035570;28;20086;-59
2022/08/16 12:03:58;;;;;;;8.65;5.35;;;29.30;93.60;;;;;;5053780;28;20041;-60
2022/08/16 12:06:24;;;;;;;7.72;5.05;;;29.40;93.10;;;;;;5045184;28;20477;-59
2022/08/16 12:08:51;;;;;;;8.50;5.38;;;29.40;92.90;;;;;;5024778;28;20040;-59
2022/08/16 12:11:17;;;;;;;7.85;5.57;;;29.50;92.80;;;;;;5053003;28;20060;-59
2022/08/16 12:13:44;;;;;;;6.38;5.32;;;29.30;92.90;;;;;;5053042;28;20029;-60
2022/08/16 12:16:10;;;;;;;7.90;5.90;;;29.10;93.00;;;;;;5047349;28;20038;-60
2022/08/16 12:18:36;;;;;;;6.68;5.28;;;29.10;93.00;;;;;;5048659;28;20045;-60
2022/08/16 12:21:02;;;;;;;9.00;5.45;;;29.20;93.10;;;;;;5044859;28;20037;-59
2022/08/16 12:23:28;;;;;;;8.07;6.35;;;29.30;93.10;;;;;;5033166;28;20049;-60
2022/08/16 12:25:54;;;;;;;8.95;6.60;;;29.40;93.30;;;;;;5041699;28;20081;-59
2022/08/16 12:28:20;;;;;;;10.13;7.57;;;29.40;92.90;;;;;;5041187;28;20079;-60
2022/08/16 12:30:46;;;;;;;8.45;7.00;;;29.40;93.10;;;;;;5052923;28;20063;-60